Air Quality Table

TIMESTAMP NO2 SO2 O3 PM10 PM2.5 TEMP HUM AIRPRES WS WD NO
2022-01-21 01:00 23.41 µg/m3 1.47 µg/m3 62.98 µg/m3 17.46 µg/m3 6.32 µg/m3 12.78 °C 77.81 % 1,018.98 mbar 1.66 m/s 257.95 Deg 3.2 µg/m3
2022-01-20 01:00 9.45 µg/m3 1.45 µg/m3 69.87 µg/m3 15.49 µg/m3 8.62 µg/m3 12.77 °C 78.43 % 1,023.61 mbar 2.01 m/s 191.94 Deg 0.67 µg/m3
2022-01-19 01:00 31 µg/m3 1.6 µg/m3 51.86 µg/m3 26.86 µg/m3 8.79 µg/m3 12.26 °C 76.69 % 1,022.57 mbar 2.16 m/s 274.98 Deg 6.57 µg/m3
2022-01-18 01:00 23.72 µg/m3 1.55 µg/m3 58.94 µg/m3 21.99 µg/m3 0.23 µg/m3 12.57 °C 82.91 % 1,019.76 mbar 2.15 m/s 315.98 Deg 6.18 µg/m3
2022-01-17 01:00 22.02 µg/m3 1.49 µg/m3 55.34 µg/m3 24.35 µg/m3 µg/m3 12.77 °C 84.39 % 1,018.68 mbar 1.52 m/s 265.84 Deg 2.81 µg/m3
2022-01-16 01:00 33.43 µg/m3 1.71 µg/m3 49.47 µg/m3 29.65 µg/m3 µg/m3 11 °C 75.25 % 1,016.27 mbar 1.86 m/s 265.23 Deg 7.31 µg/m3
2022-01-15 01:00 17.03 µg/m3 1.65 µg/m3 68.41 µg/m3 26.15 µg/m3 µg/m3 11.38 °C 66 % 1,020.24 mbar 3.24 m/s 106.97 Deg 2.11 µg/m3
2022-01-14 01:00 6.43 µg/m3 1.03 µg/m3 68 µg/m3 17.61 µg/m3 µg/m3 11.91 °C 80.13 % 1,018.01 mbar 3.83 m/s 199.48 Deg 1.24 µg/m3
2022-01-13 01:00 20.66 µg/m3 1.55 µg/m3 44.32 µg/m3 24.82 µg/m3 µg/m3 11.92 °C 83.97 % 1,010.40 mbar 2.24 m/s 231.3 Deg 14.6 µg/m3
2022-01-12 01:00 12.26 µg/m3 1.48 µg/m3 60.96 µg/m3 16.69 µg/m3 µg/m3 12.71 °C 68.93 % 1,000.54 mbar 3.93 m/s 337.94 Deg 2.14 µg/m3
2022-01-11 01:00 11.78 µg/m3 1.27 µg/m3 70.43 µg/m3 13.21 µg/m3 µg/m3 11.04 °C 74.09 % 993.58 mbar 4.18 m/s 324.89 Deg 1.93 µg/m3
2022-01-10 01:00 6.99 µg/m3 1.38 µg/m3 73.37 µg/m3 15.87 µg/m3 µg/m3 12.89 °C 70.79 % 1,002.21 mbar 4.31 m/s 317.52 Deg 1.06 µg/m3
2022-01-09 01:00 10.54 µg/m3 1.24 µg/m3 64.62 µg/m3 16.59 µg/m3 µg/m3 13.09 °C 71.46 % 1,003.11 mbar 4.73 m/s 341.69 Deg 1.49 µg/m3
2022-01-08 01:00 13.82 µg/m3 1.09 µg/m3 56.98 µg/m3 7.23 µg/m3 13.43 µg/m3 12.98 °C 87.79 % 1,002.94 mbar 3.66 m/s 294.47 Deg 2.13 µg/m3
2022-01-07 01:00 19.04 µg/m3 1.14 µg/m3 57.41 µg/m3 28.77 µg/m3 13.51 µg/m3 13.94 °C 87.53 % 1,003.47 mbar 2.4 m/s 182.02 Deg 7.72 µg/m3
2022-01-06 01:00 9.45 µg/m3 0.98 µg/m3 66.04 µg/m3 19.84 µg/m3 11.53 µg/m3 15.47 °C 88.11 % 1,006.21 mbar 3.11 m/s 251.42 Deg 1.18 µg/m3
2022-01-05 01:00 11.29 µg/m3 1.11 µg/m3 64.34 µg/m3 18.35 µg/m3 12.74 µg/m3 14.58 °C 90.56 % 1,012.90 mbar 2.46 m/s 267.64 Deg 1.83 µg/m3
2022-01-04 01:00 10.3 µg/m3 1.18 µg/m3 56.94 µg/m3 15.7 µg/m3 9.2 µg/m3 13.91 °C 88.73 % 1,016.65 mbar 2.66 m/s 307.42 Deg 1.95 µg/m3
2022-01-03 01:00 16.82 µg/m3 0.72 µg/m3 44.77 µg/m3 18.74 µg/m3 11.96 µg/m3 14.68 °C 90.18 % 1,019.16 mbar 1.34 m/s 260.57 Deg 2.03 µg/m3
2022-01-02 01:00 12.03 µg/m3 1.11 µg/m3 49.83 µg/m3 21.63 µg/m3 29.42 µg/m3 14.7 °C 91.78 % 1,018.00 mbar 2.37 m/s 319.42 Deg 2 µg/m3
2022-01-01 01:00 26.72 µg/m3 1.3 µg/m3 48.3 µg/m3 23.42 µg/m3 14.45 µg/m3 14.74 °C 75.92 % 1,017.03 mbar 1.81 m/s 264.97 Deg 5.61 µg/m3
2021-12-31 01:00 18.23 µg/m3 0.92 µg/m3 50.92 µg/m3 31.91 µg/m3 16.54 µg/m3 15.72 °C 92.48 % 1,009.26 mbar 3.04 m/s 247.82 Deg 3.32 µg/m3
2021-12-30 01:00 8.42 µg/m3 0.92 µg/m3 66.57 µg/m3 34.69 µg/m3 18.32 µg/m3 16.14 °C 88.39 % 1,006.66 mbar 4.3 m/s 323.53 Deg 1.55 µg/m3
2021-12-29 01:00 7.46 µg/m3 0.9 µg/m3 67 µg/m3 30.03 µg/m3 15.63 µg/m3 16.14 °C 86.48 % 1,006.02 mbar 4.17 m/s 305.8 Deg 1.61 µg/m3
2021-12-28 01:00 17.41 µg/m3 0.9 µg/m3 51.79 µg/m3 30.71 µg/m3 13.01 µg/m3 16.18 °C 88.5 % 1,006.98 mbar 2.29 m/s 290.37 Deg 4.07 µg/m3
2021-12-27 01:00 5.67 µg/m3 0.84 µg/m3 59.81 µg/m3 35.33 µg/m3 15.06 µg/m3 16.94 °C 85.26 % 1,007.80 mbar 2.8 m/s 221.06 Deg 0.87 µg/m3
2021-12-26 01:00 3.76 µg/m3 0.87 µg/m3 69.61 µg/m3 28.74 µg/m3 13.71 µg/m3 16.4 °C 89.2 % 1,010.83 mbar 3.68 m/s 211.44 Deg 0.47 µg/m3
2021-12-25 01:00 17.05 µg/m3 N/A 57.7 µg/m3 15.15 µg/m3 9.15 µg/m3 14.51 °C 83.56 % 1,015.79 mbar 1.62 m/s 184.21 Deg 6.02 µg/m3
2021-12-24 01:00 5.55 µg/m3 1.11 µg/m3 73.28 µg/m3 13.12 µg/m3 8.1 µg/m3 14.24 °C 82.62 % 1,015.96 mbar 2.41 m/s 190.88 Deg 0.51 µg/m3
2021-12-23 01:00 29.17 µg/m3 1.37 µg/m3 48.31 µg/m3 25.19 µg/m3 13.65 µg/m3 13.91 °C 77.53 % 1,015.65 mbar 1.3 m/s 247.28 Deg 12.67 µg/m3

It is to be noted that the data is provisional and subject to quality assurance procedures. For validated data kindly refer your request to contact.air@era.org.mt